ANA400 RJSY-RJTT
Flight info
| Callsign | ANA400 |
|---|---|
| Flight time | 0h 45m |
| Altitude | 28000 |
| Route | ZUNDA Y32 RUBIS Y10 GODIN |
| Aircraft | B738/M-SDE2E3FGHIRWXY/LB1 |
Departure
| Time | 2026-05-05 13:45 |
|---|---|
| Airport | Shonai Airport (RJSY) |
Arrival
| Time | 2026-05-05 14:30 |
|---|---|
| Airport | Tokyo Haneda International Airport (RJTT) |
| Time | Latitude | Longitude | Altitude | Speed | Heading |
|---|---|---|---|---|---|
| 2026-05-05 13:35 | 38.81508 | 139.78764 | 79 ft | 0 kts | 348° |
| 2026-05-05 13:39 | 38.81502 | 139.78765 | 81 ft | 2 kts | 347° |
| 2026-05-05 13:39 | 38.81486 | 139.78771 | 79 ft | 2 kts | 340° |
| 2026-05-05 13:39 | 38.81471 | 139.78780 | 80 ft | 2 kts | 324° |
| 2026-05-05 13:39 | 38.81461 | 139.78795 | 80 ft | 2 kts | 284° |
| 2026-05-05 13:40 | 38.81460 | 139.78814 | 83 ft | 1 kts | 262° |
| 2026-05-05 13:40 | 38.81460 | 139.78820 | 80 ft | 0 kts | 261° |
| 2026-05-05 13:40 | 38.81460 | 139.78819 | 79 ft | 0 kts | 261° |
| 2026-05-05 13:41 | 38.81459 | 139.78812 | 79 ft | 1 kts | 261° |
| 2026-05-05 13:41 | 38.81450 | 139.78801 | 80 ft | 4 kts | 206° |
| 2026-05-05 13:42 | 38.81375 | 139.78812 | 82 ft | 16 kts | 169° |
| 2026-05-05 13:42 | 38.81273 | 139.78823 | 83 ft | 14 kts | 198° |
| 2026-05-05 13:42 | 38.81232 | 139.78709 | 72 ft | 15 kts | 259° |
| 2026-05-05 13:42 | 38.81210 | 139.78547 | 75 ft | 28 kts | 260° |
| 2026-05-05 13:43 | 38.81171 | 139.78285 | 69 ft | 30 kts | 258° |
| 2026-05-05 13:43 | 38.81134 | 139.78034 | 67 ft | 29 kts | 260° |
| 2026-05-05 13:43 | 38.81101 | 139.77807 | 64 ft | 20 kts | 259° |
| 2026-05-05 13:43 | 38.81116 | 139.77668 | 63 ft | 15 kts | 275° |
| 2026-05-05 13:44 | 38.81082 | 139.77615 | 59 ft | 6 kts | 134° |
| 2026-05-05 13:44 | 38.81079 | 139.77648 | 63 ft | 0 kts | 83° |
| 2026-05-05 13:44 | 38.81080 | 139.77653 | 65 ft | 2 kts | 83° |
| 2026-05-05 13:44 | 38.81119 | 139.77930 | 59 ft | 66 kts | 79° |
| 2026-05-05 13:45 | 38.81241 | 139.78781 | 70 ft | 127 kts | 78° |
| 2026-05-05 13:45 | 38.81419 | 139.80094 | 296 ft | 162 kts | 82° |
| 2026-05-05 13:45 | 38.81628 | 139.81550 | 1060 ft | 165 kts | 84° |
| 2026-05-05 13:45 | 38.81264 | 139.83033 | 1590 ft | 189 kts | 136° |
| 2026-05-05 13:46 | 38.80236 | 139.84080 | 2453 ft | 196 kts | 145° |
| 2026-05-05 13:46 | 38.79065 | 139.85106 | 3108 ft | 215 kts | 145° |
| 2026-05-05 13:46 | 38.77844 | 139.86330 | 3888 ft | 232 kts | 142° |
| 2026-05-05 13:46 | 38.76586 | 139.87757 | 4621 ft | 250 kts | 140° |
| 2026-05-05 13:47 | 38.75274 | 139.89333 | 5387 ft | 263 kts | 141° |
| 2026-05-05 13:47 | 38.73942 | 139.90949 | 6274 ft | 271 kts | 142° |
| 2026-05-05 13:47 | 38.72551 | 139.92612 | 7204 ft | 276 kts | 142° |
| 2026-05-05 13:47 | 38.71121 | 139.94298 | 8102 ft | 282 kts | 142° |
| 2026-05-05 13:48 | 38.69650 | 139.96030 | 8973 ft | 290 kts | 142° |
| 2026-05-05 13:48 | 38.68146 | 139.97796 | 9825 ft | 296 kts | 141° |
| 2026-05-05 13:48 | 38.66600 | 139.99613 | 10529 ft | 309 kts | 141° |
| 2026-05-05 13:48 | 38.64961 | 140.01540 | 11055 ft | 326 kts | 140° |
| 2026-05-05 13:49 | 38.63241 | 140.03579 | 11550 ft | 344 kts | 139° |
| 2026-05-05 13:49 | 38.61524 | 140.05770 | 11983 ft | 363 kts | 136° |
| 2026-05-05 13:49 | 38.59761 | 140.08177 | 12658 ft | 373 kts | 135° |
| 2026-05-05 13:49 | 38.57975 | 140.10639 | 13385 ft | 380 kts | 135° |
| 2026-05-05 13:50 | 38.56142 | 140.13102 | 14141 ft | 384 kts | 136° |
| 2026-05-05 13:50 | 38.54257 | 140.15574 | 14928 ft | 389 kts | 137° |
| 2026-05-05 13:50 | 38.52368 | 140.18028 | 15677 ft | 394 kts | 137° |
| 2026-05-05 13:50 | 38.50430 | 140.20565 | 16411 ft | 400 kts | 137° |
| 2026-05-05 13:51 | 38.48483 | 140.23135 | 17126 ft | 405 kts | 137° |
| 2026-05-05 13:51 | 38.46518 | 140.25734 | 17838 ft | 409 kts | 137° |
| 2026-05-05 13:51 | 38.44523 | 140.28366 | 18518 ft | 414 kts | 137° |
| 2026-05-05 13:51 | 38.42527 | 140.30986 | 19198 ft | 418 kts | 137° |
| 2026-05-05 13:52 | 38.40452 | 140.33614 | 19834 ft | 420 kts | 142° |
| 2026-05-05 13:52 | 38.38080 | 140.35777 | 20509 ft | 418 kts | 154° |
| 2026-05-05 13:52 | 38.35436 | 140.37300 | 21137 ft | 416 kts | 164° |
| 2026-05-05 13:52 | 38.32693 | 140.38532 | 21728 ft | 420 kts | 165° |
| 2026-05-05 13:53 | 38.29914 | 140.39728 | 22344 ft | 422 kts | 166° |
| 2026-05-05 13:53 | 38.27120 | 140.40913 | 22893 ft | 425 kts | 166° |
| 2026-05-05 13:53 | 38.24299 | 140.42123 | 23420 ft | 429 kts | 165° |
| 2026-05-05 13:53 | 38.21457 | 140.43364 | 23980 ft | 432 kts | 165° |
| 2026-05-05 13:54 | 38.18638 | 140.44602 | 24510 ft | 434 kts | 166° |
| 2026-05-05 13:54 | 38.15763 | 140.45858 | 24988 ft | 437 kts | 166° |
| 2026-05-05 13:54 | 38.12861 | 140.47115 | 25419 ft | 441 kts | 166° |
| 2026-05-05 13:54 | 38.09944 | 140.48373 | 25868 ft | 443 kts | 166° |
| 2026-05-05 13:55 | 38.07044 | 140.49625 | 26280 ft | 446 kts | 166° |
| 2026-05-05 13:55 | 38.04083 | 140.50906 | 26677 ft | 449 kts | 166° |
| 2026-05-05 13:55 | 38.01123 | 140.52189 | 27071 ft | 452 kts | 167° |
| 2026-05-05 13:55 | 37.98150 | 140.53478 | 27680 ft | 448 kts | 167° |
| 2026-05-05 13:56 | 37.95202 | 140.54753 | 28154 ft | 448 kts | 168° |
| 2026-05-05 13:56 | 37.92216 | 140.56036 | 28191 ft | 454 kts | 168° |
| 2026-05-05 13:56 | 37.86301 | 140.58585 | 28190 ft | 446 kts | 168° |
| 2026-05-05 13:57 | 37.80405 | 140.61118 | 28193 ft | 448 kts | 168° |
| 2026-05-05 13:57 | 37.74434 | 140.62771 | 28202 ft | 430 kts | 186° |
| 2026-05-05 13:58 | 37.71490 | 140.62564 | 28208 ft | 419 kts | 196° |
| 2026-05-05 13:58 | 37.68682 | 140.61825 | 28237 ft | 416 kts | 199° |
| 2026-05-05 13:58 | 37.63012 | 140.60166 | 28230 ft | 416 kts | 200° |
| 2026-05-05 13:59 | 37.54552 | 140.57725 | 28245 ft | 416 kts | 199° |
| 2026-05-05 14:00 | 37.47036 | 140.55578 | 28239 ft | 415 kts | 200° |
| 2026-05-05 14:00 | 37.41374 | 140.53955 | 28244 ft | 415 kts | 200° |
| 2026-05-05 14:01 | 37.35730 | 140.52340 | 28251 ft | 415 kts | 200° |
| 2026-05-05 14:01 | 37.30113 | 140.50737 | 28259 ft | 415 kts | 200° |
| 2026-05-05 14:02 | 37.24463 | 140.49128 | 28206 ft | 414 kts | 200° |
| 2026-05-05 14:02 | 37.18874 | 140.47537 | 28245 ft | 414 kts | 200° |
| 2026-05-05 14:03 | 37.13231 | 140.45935 | 27797 ft | 416 kts | 200° |
| 2026-05-05 14:03 | 37.10401 | 140.45132 | 27202 ft | 415 kts | 200° |
| 2026-05-05 14:03 | 37.07612 | 140.44342 | 26621 ft | 414 kts | 200° |
| 2026-05-05 14:04 | 37.04789 | 140.43543 | 26019 ft | 413 kts | 199° |
| 2026-05-05 14:04 | 37.01983 | 140.42749 | 25437 ft | 412 kts | 199° |
| 2026-05-05 14:04 | 36.99181 | 140.41956 | 24833 ft | 411 kts | 199° |
| 2026-05-05 14:04 | 36.96420 | 140.41176 | 24246 ft | 409 kts | 198° |
| 2026-05-05 14:05 | 36.93648 | 140.40395 | 23601 ft | 405 kts | 198° |
| 2026-05-05 14:05 | 36.90919 | 140.39627 | 22858 ft | 402 kts | 197° |
| 2026-05-05 14:05 | 36.88190 | 140.38857 | 22173 ft | 399 kts | 197° |
| 2026-05-05 14:05 | 36.85488 | 140.38095 | 21551 ft | 395 kts | 197° |
| 2026-05-05 14:06 | 36.82849 | 140.37352 | 20914 ft | 391 kts | 197° |
| 2026-05-05 14:06 | 36.80196 | 140.36608 | 20322 ft | 386 kts | 197° |
| 2026-05-05 14:06 | 36.77589 | 140.35876 | 19735 ft | 382 kts | 197° |
| 2026-05-05 14:06 | 36.74995 | 140.35145 | 19136 ft | 379 kts | 196° |
| 2026-05-05 14:07 | 36.72415 | 140.34479 | 18512 ft | 377 kts | 194° |
| 2026-05-05 14:07 | 36.69838 | 140.33960 | 17889 ft | 375 kts | 191° |
| 2026-05-05 14:07 | 36.67293 | 140.33519 | 17265 ft | 372 kts | 191° |
| 2026-05-05 14:07 | 36.64744 | 140.33063 | 16650 ft | 368 kts | 191° |
| 2026-05-05 14:08 | 36.62215 | 140.32563 | 16085 ft | 363 kts | 192° |
| 2026-05-05 14:08 | 36.59783 | 140.32056 | 15868 ft | 354 kts | 192° |
| 2026-05-05 14:08 | 36.57365 | 140.31551 | 15617 ft | 351 kts | 192° |
| 2026-05-05 14:08 | 36.54964 | 140.31064 | 15359 ft | 348 kts | 192° |
| 2026-05-05 14:09 | 36.52574 | 140.30589 | 15080 ft | 346 kts | 192° |
| 2026-05-05 14:09 | 36.50197 | 140.30119 | 14811 ft | 345 kts | 192° |
| 2026-05-05 14:09 | 36.47823 | 140.29648 | 14544 ft | 343 kts | 192° |
| 2026-05-05 14:09 | 36.45491 | 140.29180 | 14279 ft | 342 kts | 192° |
| 2026-05-05 14:10 | 36.43250 | 140.28321 | 14043 ft | 334 kts | 209° |
| 2026-05-05 14:10 | 36.41380 | 140.26676 | 13779 ft | 328 kts | 227° |
| 2026-05-05 14:10 | 36.40080 | 140.24383 | 13532 ft | 323 kts | 246° |
| 2026-05-05 14:10 | 36.39384 | 140.21720 | 13112 ft | 326 kts | 256° |
| 2026-05-05 14:11 | 36.38845 | 140.18961 | 12737 ft | 327 kts | 258° |
| 2026-05-05 14:11 | 36.38345 | 140.16231 | 12458 ft | 327 kts | 258° |
| 2026-05-05 14:11 | 36.37829 | 140.13471 | 12188 ft | 326 kts | 257° |
| 2026-05-05 14:11 | 36.37301 | 140.10769 | 11932 ft | 324 kts | 257° |
| 2026-05-05 14:12 | 36.36761 | 140.08068 | 11668 ft | 321 kts | 257° |
| 2026-05-05 14:12 | 36.36222 | 140.05374 | 11421 ft | 319 kts | 256° |
| 2026-05-05 14:12 | 36.35343 | 140.02864 | 11177 ft | 319 kts | 237° |
| 2026-05-05 14:12 | 36.33773 | 140.00916 | 10920 ft | 322 kts | 214° |
| 2026-05-05 14:13 | 36.31672 | 139.99914 | 10666 ft | 327 kts | 190° |
| 2026-05-05 14:13 | 36.29408 | 139.99651 | 10433 ft | 327 kts | 185° |
| 2026-05-05 14:13 | 36.27172 | 139.99530 | 10279 ft | 315 kts | 184° |
| 2026-05-05 14:13 | 36.25018 | 139.99451 | 10139 ft | 303 kts | 184° |
| 2026-05-05 14:14 | 36.22977 | 139.99349 | 10016 ft | 292 kts | 185° |
| 2026-05-05 14:14 | 36.20972 | 139.99217 | 9819 ft | 284 kts | 185° |
| 2026-05-05 14:14 | 36.19010 | 139.99073 | 9599 ft | 280 kts | 185° |
| 2026-05-05 14:14 | 36.17101 | 139.98938 | 9420 ft | 276 kts | 185° |
| 2026-05-05 14:15 | 36.15183 | 139.98809 | 9222 ft | 274 kts | 185° |
| 2026-05-05 14:15 | 36.13279 | 139.98684 | 9031 ft | 273 kts | 185° |
| 2026-05-05 14:15 | 36.11378 | 139.98561 | 8817 ft | 272 kts | 185° |
| 2026-05-05 14:15 | 36.09492 | 139.98437 | 8631 ft | 270 kts | 185° |
| 2026-05-05 14:16 | 36.07638 | 139.98326 | 8433 ft | 270 kts | 181° |
| 2026-05-05 14:16 | 36.05780 | 139.98664 | 8260 ft | 271 kts | 164° |
| 2026-05-05 14:16 | 36.03983 | 139.99429 | 8046 ft | 272 kts | 162° |
| 2026-05-05 14:16 | 36.02213 | 140.00228 | 7838 ft | 270 kts | 161° |
| 2026-05-05 14:17 | 36.00452 | 140.01038 | 7651 ft | 269 kts | 161° |
| 2026-05-05 14:17 | 35.98725 | 140.01828 | 7461 ft | 267 kts | 161° |
| 2026-05-05 14:17 | 35.96976 | 140.02620 | 7262 ft | 266 kts | 162° |
| 2026-05-05 14:17 | 35.95240 | 140.03400 | 7076 ft | 265 kts | 161° |
| 2026-05-05 14:18 | 35.93509 | 140.04179 | 6888 ft | 264 kts | 162° |
| 2026-05-05 14:18 | 35.91780 | 140.04957 | 6692 ft | 263 kts | 162° |
| 2026-05-05 14:18 | 35.90078 | 140.05723 | 6514 ft | 262 kts | 161° |
| 2026-05-05 14:18 | 35.88367 | 140.06495 | 6329 ft | 261 kts | 161° |
| 2026-05-05 14:19 | 35.86659 | 140.07265 | 6142 ft | 260 kts | 161° |
| 2026-05-05 14:19 | 35.84956 | 140.08032 | 5946 ft | 259 kts | 162° |
| 2026-05-05 14:19 | 35.83263 | 140.08791 | 5769 ft | 258 kts | 161° |
| 2026-05-05 14:19 | 35.81583 | 140.09545 | 5593 ft | 256 kts | 161° |
| 2026-05-05 14:20 | 35.79929 | 140.10290 | 5406 ft | 253 kts | 161° |
| 2026-05-05 14:20 | 35.78275 | 140.11033 | 5223 ft | 253 kts | 161° |
| 2026-05-05 14:20 | 35.76623 | 140.11776 | 5036 ft | 250 kts | 161° |
| 2026-05-05 14:20 | 35.74990 | 140.12509 | 4863 ft | 248 kts | 161° |
| 2026-05-05 14:21 | 35.73392 | 140.13230 | 4680 ft | 247 kts | 161° |
| 2026-05-05 14:21 | 35.71821 | 140.14066 | 4535 ft | 245 kts | 150° |
| 2026-05-05 14:21 | 35.70479 | 140.15389 | 4535 ft | 249 kts | 139° |
| 2026-05-05 14:21 | 35.69216 | 140.16850 | 4521 ft | 249 kts | 138° |
| 2026-05-05 14:22 | 35.67964 | 140.18329 | 4511 ft | 248 kts | 137° |
| 2026-05-05 14:22 | 35.66722 | 140.19803 | 4500 ft | 248 kts | 138° |
| 2026-05-05 14:22 | 35.65368 | 140.21113 | 4505 ft | 246 kts | 152° |
| 2026-05-05 14:22 | 35.63793 | 140.21922 | 4511 ft | 246 kts | 161° |
| 2026-05-05 14:23 | 35.62196 | 140.22623 | 4516 ft | 246 kts | 161° |
| 2026-05-05 14:23 | 35.60550 | 140.23057 | 4490 ft | 235 kts | 184° |
| 2026-05-05 14:23 | 35.59061 | 140.22405 | 4437 ft | 231 kts | 219° |
| 2026-05-05 14:23 | 35.58112 | 140.20840 | 4297 ft | 227 kts | 237° |
| 2026-05-05 14:24 | 35.57372 | 140.19134 | 4061 ft | 226 kts | 249° |
| 2026-05-05 14:24 | 35.57167 | 140.17231 | 4058 ft | 225 kts | 265° |
| 2026-05-05 14:24 | 35.57144 | 140.15332 | 4036 ft | 224 kts | 266° |
| 2026-05-05 14:24 | 35.57141 | 140.13422 | 4034 ft | 220 kts | 267° |
| 2026-05-05 14:25 | 35.57138 | 140.11535 | 4036 ft | 219 kts | 266° |
| 2026-05-05 14:25 | 35.57132 | 140.09672 | 4034 ft | 221 kts | 266° |
| 2026-05-05 14:25 | 35.57124 | 140.07761 | 4039 ft | 222 kts | 267° |
| 2026-05-05 14:25 | 35.57115 | 140.05861 | 3768 ft | 226 kts | 266° |
| 2026-05-05 14:26 | 35.57108 | 140.03955 | 3470 ft | 221 kts | 266° |
| 2026-05-05 14:26 | 35.57102 | 140.02118 | 3169 ft | 212 kts | 265° |
| 2026-05-05 14:26 | 35.57094 | 140.00335 | 2871 ft | 204 kts | 265° |
| 2026-05-05 14:26 | 35.57086 | 139.98662 | 2580 ft | 189 kts | 265° |
| 2026-05-05 14:27 | 35.57076 | 139.97115 | 2356 ft | 175 kts | 264° |
| 2026-05-05 14:27 | 35.57066 | 139.95633 | 2136 ft | 170 kts | 265° |
| 2026-05-05 14:27 | 35.57056 | 139.94198 | 1902 ft | 165 kts | 265° |
| 2026-05-05 14:27 | 35.57047 | 139.92820 | 1691 ft | 161 kts | 265° |
| 2026-05-05 14:28 | 35.57040 | 139.91465 | 1494 ft | 155 kts | 265° |
| 2026-05-05 14:28 | 35.57034 | 139.90152 | 1284 ft | 153 kts | 266° |
| 2026-05-05 14:28 | 35.57039 | 139.88842 | 1073 ft | 152 kts | 266° |
| 2026-05-05 14:28 | 35.57047 | 139.87581 | 942 ft | 146 kts | 266° |
| 2026-05-05 14:29 | 35.56955 | 139.86338 | 825 ft | 149 kts | 251° |
| 2026-05-05 14:29 | 35.56538 | 139.85178 | 732 ft | 149 kts | 236° |
| 2026-05-05 14:29 | 35.55879 | 139.84207 | 632 ft | 147 kts | 222° |
| 2026-05-05 14:29 | 35.55123 | 139.83377 | 396 ft | 145 kts | 220° |
| 2026-05-05 14:30 | 35.54362 | 139.82547 | 199 ft | 144 kts | 221° |
| 2026-05-05 14:30 | 35.53653 | 139.81746 | 53 ft | 125 kts | 223° |
| 2026-05-05 14:30 | 35.53184 | 139.81227 | 47 ft | 47 kts | 223° |
| 2026-05-05 14:30 | 35.53085 | 139.81116 | 46 ft | 3 kts | 221° |
| 2026-05-05 14:31 | 35.53041 | 139.81063 | 47 ft | 10 kts | 226° |
| 2026-05-05 14:31 | 35.52996 | 139.81002 | 47 ft | 9 kts | 232° |
| 2026-05-05 14:31 | 35.52961 | 139.80936 | 44 ft | 9 kts | 244° |
| 2026-05-05 14:31 | 35.52913 | 139.80796 | 44 ft | 22 kts | 248° |
| 2026-05-05 14:32 | 35.52884 | 139.80651 | 47 ft | 15 kts | 279° |
| 2026-05-05 14:32 | 35.52946 | 139.80563 | 46 ft | 14 kts | 326° |
| 2026-05-05 14:32 | 35.53027 | 139.80506 | 48 ft | 13 kts | 331° |
| 2026-05-05 14:32 | 35.53116 | 139.80444 | 44 ft | 23 kts | 330° |
| 2026-05-05 14:33 | 35.53307 | 139.80309 | 37 ft | 34 kts | 330° |
| 2026-05-05 14:33 | 35.53515 | 139.80161 | 29 ft | 35 kts | 330° |
| 2026-05-05 14:33 | 35.53730 | 139.80007 | 22 ft | 35 kts | 330° |
| 2026-05-05 14:33 | 35.53943 | 139.79858 | 19 ft | 34 kts | 330° |
| 2026-05-05 14:34 | 35.54136 | 139.79720 | 21 ft | 31 kts | 329° |
| 2026-05-05 14:34 | 35.54320 | 139.79590 | 22 ft | 29 kts | 330° |
| 2026-05-05 14:34 | 35.54491 | 139.79469 | 26 ft | 27 kts | 330° |
| 2026-05-05 14:34 | 35.54613 | 139.79381 | 28 ft | 18 kts | 333° |
| 2026-05-05 14:35 | 35.54708 | 139.79432 | 27 ft | 16 kts | 60° |
| 2026-05-05 14:35 | 35.54775 | 139.79532 | 30 ft | 16 kts | 18° |
| 2026-05-05 14:35 | 35.54869 | 139.79493 | 27 ft | 14 kts | 330° |
| 2026-05-05 14:35 | 35.54957 | 139.79431 | 28 ft | 14 kts | 330° |
| 2026-05-05 14:36 | 35.55044 | 139.79369 | 28 ft | 15 kts | 329° |
| 2026-05-05 14:36 | 35.55133 | 139.79306 | 27 ft | 15 kts | 330° |
| 2026-05-05 14:36 | 35.55220 | 139.79244 | 26 ft | 13 kts | 327° |
| 2026-05-05 14:36 | 35.55249 | 139.79151 | 30 ft | 12 kts | 250° |
| 2026-05-05 14:37 | 35.55222 | 139.79063 | 27 ft | 10 kts | 273° |
| 2026-05-05 14:37 | 35.55261 | 139.78993 | 27 ft | 10 kts | 327° |
| 2026-05-05 14:37 | 35.55320 | 139.78949 | 27 ft | 10 kts | 329° |
| 2026-05-05 14:37 | 35.55379 | 139.78903 | 27 ft | 10 kts | 314° |
| 2026-05-05 14:38 | 35.55402 | 139.78822 | 26 ft | 10 kts | 285° |
| 2026-05-05 14:38 | 35.55410 | 139.78785 | 27 ft | 0 kts | 284° |